createdAt,value
2019-02-14T05:32:22.852Z,17.17
2019-02-14T05:34:52.431Z,20.77
2019-02-14T05:37:20.894Z,19.07
2019-02-14T05:43:18.320Z,18.07
2019-02-14T05:45:46.909Z,18.73
2019-02-14T05:48:15.351Z,18.10
2019-02-14T05:50:43.790Z,16.60
2019-02-14T05:53:12.371Z,17.03
2019-02-14T05:59:22.122Z,19.00
2019-02-14T06:05:31.789Z,18.07
2019-02-14T06:08:00.304Z,16.83
2019-02-14T06:10:28.753Z,17.27
2019-02-14T06:16:25.844Z,17.13
2019-02-14T06:18:54.611Z,17.33
2019-02-14T06:25:05.442Z,17.67
2019-02-14T06:27:33.911Z,19.20
2019-02-14T06:30:02.359Z,20.00
2019-02-14T06:32:31.011Z,18.47
2019-02-14T06:38:40.474Z,18.83
2019-02-14T06:41:08.926Z,17.83
2019-02-14T06:43:37.723Z,17.70
2019-02-14T06:46:06.287Z,20.07
2019-02-14T06:48:34.737Z,19.17
2019-02-14T06:51:03.589Z,18.50
2019-02-14T06:53:32.099Z,18.23
2019-02-14T06:56:00.608Z,20.20
2019-02-14T06:58:29.058Z,19.10
2019-02-14T07:04:26.551Z,19.47
2019-02-14T07:06:55.022Z,18.23
2019-02-14T07:09:23.548Z,18.53
2019-02-14T07:11:51.984Z,21.63
2019-02-14T07:14:20.707Z,19.03
2019-02-14T07:16:49.151Z,21.10
2019-02-14T07:19:17.930Z,20.73
2019-02-14T07:21:46.922Z,21.57
2019-02-14T07:24:15.447Z,19.50
2019-02-14T07:26:43.903Z,21.00
2019-02-14T07:29:12.395Z,22.63
2019-02-14T07:31:40.843Z,21.43
2019-02-14T07:34:09.573Z,23.33
2019-02-14T07:36:38.108Z,18.57
2019-02-14T07:39:07.287Z,22.73
2019-02-14T07:41:35.739Z,21.73
2019-02-14T07:44:04.295Z,19.63
2019-02-14T07:50:14.294Z,20.80
2019-02-14T07:52:42.726Z,22.10
2019-02-14T07:55:12.474Z,20.77
2019-02-14T07:57:41.458Z,22.00
2019-02-14T08:00:12.911Z,23.57
2019-02-14T08:06:10.623Z,23.03
2019-02-14T08:08:39.164Z,23.67
2019-02-14T08:11:07.594Z,23.93
2019-02-14T08:13:36.047Z,26.33
2019-02-14T08:16:04.529Z,24.33
2019-02-14T08:18:32.985Z,24.93
2019-02-14T08:21:01.435Z,26.17
2019-02-14T08:23:30.370Z,23.87
2019-02-14T08:25:58.803Z,24.73
2019-02-14T08:28:27.541Z,25.80
2019-02-14T08:30:56.019Z,25.83
2019-02-14T08:33:24.462Z,23.00
2019-02-14T08:35:52.909Z,24.20
2019-02-14T08:38:21.396Z,23.03
2019-02-14T08:40:49.830Z,21.57
2019-02-14T08:43:18.571Z,21.77
2019-02-14T08:45:47.410Z,23.73
2019-02-14T08:48:15.993Z,22.93
2019-02-14T08:50:44.502Z,21.17
2019-02-14T08:53:12.988Z,22.20
2019-02-14T08:55:41.443Z,20.10
2019-02-14T09:01:39.104Z,28.83
2019-02-14T09:04:07.647Z,30.03
2019-02-14T09:06:36.189Z,28.53
2019-02-14T09:09:05.559Z,30.10
2019-02-14T09:11:34.436Z,30.37
2019-02-14T09:14:02.888Z,30.87
2019-02-14T09:16:31.329Z,29.00
2019-02-14T09:18:59.843Z,28.93
2019-02-14T09:21:28.292Z,30.37
2019-02-14T09:23:56.747Z,25.70
2019-02-14T09:26:25.547Z,32.10
2019-02-14T09:28:54.008Z,25.90
2019-02-14T09:31:22.443Z,25.30
2019-02-14T09:33:50.960Z,23.03
2019-02-14T09:36:19.394Z,17.03
2019-02-14T09:38:47.836Z,18.47
2019-02-14T09:41:16.596Z,23.13
2019-02-14T09:43:45.039Z,20.35
2019-02-14T09:46:13.475Z,21.60
2019-02-14T09:52:10.798Z,24.33
2019-02-14T09:54:39.351Z,25.77
2019-02-14T09:57:07.867Z,23.60
2019-02-14T09:59:36.332Z,22.67
2019-02-14T10:02:04.941Z,21.53
2019-02-14T10:04:33.395Z,25.10
2019-02-14T10:10:31.071Z,24.00
2019-02-14T10:12:59.553Z,24.57
2019-02-14T10:15:28.015Z,26.37
2019-02-14T10:17:56.834Z,24.27
2019-02-14T10:20:25.319Z,24.57
2019-02-14T10:22:53.786Z,25.40
2019-02-14T10:25:22.291Z,23.87
2019-02-14T10:31:19.949Z,24.10
2019-02-14T10:33:48.419Z,22.63
2019-02-14T10:36:16.864Z,20.97
2019-02-14T10:38:45.320Z,25.30
2019-02-14T10:41:13.804Z,27.60
2019-02-14T10:43:48.670Z,25.17
2019-02-14T10:46:12.425Z,26.57
2019-02-14T10:48:40.923Z,27.53
2019-02-14T10:54:50.438Z,25.73
2019-02-14T10:57:18.878Z,25.53
2019-02-14T10:59:47.340Z,26.50
2019-02-14T11:02:15.883Z,27.73
2019-02-14T11:08:31.525Z,24.87
2019-02-14T11:14:36.937Z,33.47
2019-02-14T11:17:05.999Z,33.97
2019-02-14T11:23:02.449Z,36.13
2019-02-14T11:28:59.124Z,35.63
2019-02-14T11:34:58.429Z,32.73
2019-02-14T11:40:34.572Z,38.93
2019-02-14T11:46:32.011Z,31.57
2019-02-14T11:49:00.448Z,33.07
2019-02-14T11:51:28.912Z,33.77
2019-02-14T11:53:57.356Z,29.30
2019-02-14T11:56:25.879Z,28.60
2019-02-14T11:58:54.367Z,28.90
2019-02-14T12:05:04.335Z,30.87
2019-02-14T12:07:32.793Z,30.43
2019-02-14T12:10:01.255Z,28.90
2019-02-14T12:15:58.434Z,33.53
2019-02-14T12:18:26.983Z,33.57
2019-02-14T12:20:55.434Z,30.00
2019-02-14T12:23:23.894Z,27.77
2019-02-14T12:25:52.436Z,29.43
2019-02-14T12:28:20.873Z,26.10
2019-02-14T12:30:49.332Z,27.57
2019-02-14T12:33:17.807Z,27.87
2019-02-14T12:35:46.307Z,28.23
2019-02-14T12:41:18.971Z,25.57
2019-02-14T12:43:47.463Z,29.70
2019-02-14T12:46:15.979Z,28.90
2019-02-14T12:48:44.428Z,27.83
2019-02-14T12:51:12.908Z,31.73
2019-02-14T12:57:22.623Z,27.80
2019-02-14T12:59:51.133Z,30.30
2019-02-14T13:02:19.578Z,27.20
2019-02-14T13:04:48.125Z,29.83
2019-02-14T13:07:16.908Z,28.37
2019-02-14T13:09:45.348Z,31.27
2019-02-14T13:12:13.857Z,28.13
2019-02-14T13:18:23.154Z,30.37
2019-02-14T13:20:51.334Z,30.83
2019-02-14T13:26:30.687Z,32.77
2019-02-14T13:28:59.151Z,31.23
2019-02-14T13:31:31.847Z,29.87
2019-02-14T13:33:58.134Z,29.97
2019-02-14T13:36:26.753Z,26.93
2019-02-14T13:38:55.205Z,27.83
2019-02-14T13:41:30.928Z,25.77
2019-02-14T13:43:54.216Z,27.67
2019-02-14T13:46:22.737Z,26.43
2019-02-14T13:48:51.188Z,27.37
2019-02-14T13:51:19.653Z,28.63
2019-02-14T13:53:48.481Z,25.33
2019-02-14T13:56:16.991Z,26.93
2019-02-14T14:02:14.594Z,23.77
2019-02-14T14:08:11.336Z,27.93
2019-02-14T14:14:07.861Z,26.73
2019-02-14T14:20:06.988Z,25.30
2019-02-14T14:26:04.507Z,25.80
2019-02-14T14:28:33.295Z,28.73
2019-02-14T14:31:01.773Z,23.37
2019-02-14T14:33:30.211Z,20.77
2019-02-14T14:39:27.420Z,20.95
2019-02-14T14:45:13.805Z,18.67
2019-02-14T14:51:11.661Z,19.60
2019-02-14T14:53:41.127Z,19.97
2019-02-14T14:59:51.516Z,18.40
2019-02-14T15:02:19.981Z,19.97
2019-02-14T15:04:48.499Z,15.27
2019-02-14T15:10:46.059Z,11.57
2019-02-14T15:16:42.982Z,12.17
2019-02-14T15:19:11.837Z,12.30
2019-02-14T15:21:40.555Z,14.30
2019-02-14T15:27:37.945Z,13.63
2019-02-14T15:33:35.435Z,16.67
2019-02-14T15:39:32.868Z,15.40
2019-02-14T15:45:29.868Z,16.03
2019-02-14T15:51:27.319Z,19.20
2019-02-14T15:53:55.876Z,19.07
2019-02-14T16:00:11.821Z,20.80
2019-02-14T16:06:21.583Z,21.30
2019-02-14T16:08:50.881Z,21.57
2019-02-14T16:11:19.333Z,19.23
2019-02-14T16:13:47.907Z,19.77
2019-02-14T16:16:16.378Z,19.47
2019-02-14T16:18:46.697Z,17.80
2019-02-14T16:21:15.437Z,22.13
2019-02-14T16:23:44.160Z,17.50
2019-02-14T16:26:13.083Z,17.70
2019-02-14T16:32:11.453Z,19.20
2019-02-14T16:38:01.378Z,18.90
2019-02-14T16:43:59.414Z,21.37
2019-02-14T16:49:32.269Z,21.80
2019-02-14T16:55:29.642Z,28.10
2019-02-14T17:01:26.707Z,37.50
2019-02-14T17:03:55.164Z,33.13
2019-02-14T17:06:23.880Z,32.53
2019-02-14T17:08:52.360Z,30.97
2019-02-14T17:11:20.859Z,28.03
2019-02-14T17:17:26.204Z,26.30
2019-02-14T17:19:48.172Z,27.10
2019-02-14T17:22:16.651Z,25.47
2019-02-14T17:24:45.464Z,32.87
2019-02-14T17:30:42.297Z,29.53
2019-02-14T17:33:10.846Z,27.73
2019-02-14T17:35:39.409Z,27.20
2019-02-14T17:38:08.260Z,29.17
2019-02-14T17:40:45.629Z,24.33
2019-02-14T17:43:06.941Z,25.27
2019-02-14T17:49:04.303Z,28.07
2019-02-14T17:55:01.651Z,28.63
2019-02-14T18:00:59.253Z,33.47
2019-02-14T18:03:27.708Z,30.50
2019-02-14T18:05:56.170Z,32.40
2019-02-14T18:08:24.615Z,31.10
2019-02-14T18:10:55.144Z,30.80
2019-02-14T18:13:23.606Z,28.90
2019-02-14T18:19:33.334Z,31.07
2019-02-14T18:22:02.091Z,29.47
2019-02-14T18:24:30.564Z,27.33
2019-02-14T18:26:59.049Z,28.00
2019-02-14T18:29:27.584Z,28.47
2019-02-14T18:31:56.046Z,28.37
2019-02-14T18:34:24.586Z,27.77
2019-02-14T18:36:53.334Z,28.73
2019-02-14T18:39:21.772Z,28.50
2019-02-14T18:41:50.716Z,28.13
2019-02-14T18:44:19.155Z,31.23
2019-02-14T18:46:47.666Z,30.97
2019-02-14T18:49:16.142Z,31.90
2019-02-14T18:51:44.607Z,36.10
2019-02-14T18:54:13.160Z,36.40
2019-02-14T18:56:41.649Z,38.30
2019-02-14T18:59:10.233Z,40.10
2019-02-14T19:01:38.693Z,31.40
2019-02-14T19:04:07.144Z,29.17
2019-02-14T19:06:35.597Z,27.50
2019-02-14T19:12:32.960Z,22.93
2019-02-14T19:18:30.457Z,23.37
2019-02-14T19:20:59.005Z,23.77
2019-02-14T19:27:08.835Z,21.13
2019-02-14T19:29:37.292Z,21.83
2019-02-14T19:32:05.843Z,18.37
2019-02-14T19:34:34.710Z,20.83
2019-02-14T19:40:44.540Z,21.57
2019-02-14T19:43:13.402Z,22.40
2019-02-14T19:49:10.864Z,25.57
2019-02-14T19:51:40.304Z,21.37
2019-02-14T19:57:25.904Z,26.60
2019-02-14T20:03:35.427Z,23.53
2019-02-14T20:09:45.262Z,28.43
2019-02-14T20:15:54.872Z,31.63
2019-02-14T20:18:23.346Z,29.17
2019-02-14T20:20:51.794Z,28.10
2019-02-14T20:23:20.359Z,26.90
2019-02-14T20:29:05.885Z,31.73
